createdAt,value
2019-05-13T00:00:03.777Z,0.00
2019-05-13T00:01:06.781Z,0.00
2019-05-13T00:02:04.573Z,0.00
2019-05-13T00:03:03.597Z,0.00
2019-05-13T00:04:03.575Z,0.00
2019-05-13T00:05:03.893Z,0.00
2019-05-13T00:06:04.154Z,0.00
2019-05-13T00:07:04.733Z,0.00
2019-05-13T00:08:03.620Z,0.00
2019-05-13T00:09:03.527Z,0.00
2019-05-13T00:10:04.091Z,0.00
2019-05-13T00:11:04.473Z,0.00
2019-05-13T00:12:04.684Z,0.00
2019-05-13T00:13:04.511Z,0.00
2019-05-13T00:14:04.394Z,0.00
2019-05-13T00:15:03.765Z,0.00
2019-05-13T00:16:03.746Z,0.00
2019-05-13T00:17:04.241Z,0.00
2019-05-13T00:18:03.855Z,0.00
2019-05-13T00:19:04.142Z,0.00
2019-05-13T00:20:04.018Z,0.00
2019-05-13T00:21:03.635Z,0.00
2019-05-13T00:22:03.858Z,0.00
2019-05-13T00:23:03.953Z,0.00
2019-05-13T00:24:04.163Z,0.00
2019-05-13T00:25:03.995Z,0.00
2019-05-13T00:26:03.821Z,0.00
2019-05-13T00:27:03.963Z,0.00
2019-05-13T00:28:04.073Z,0.00
2019-05-13T00:29:04.125Z,0.00
2019-05-13T00:30:04.261Z,0.00
2019-05-13T00:31:03.463Z,0.00
2019-05-13T00:32:04.487Z,0.00
2019-05-13T00:33:03.733Z,0.00
2019-05-13T00:34:03.651Z,0.00
2019-05-13T00:35:03.930Z,0.00
2019-05-13T00:36:04.040Z,0.00
2019-05-13T00:37:08.741Z,0.00
2019-05-13T00:38:04.037Z,0.00
2019-05-13T00:39:03.935Z,0.00
2019-05-13T00:40:03.921Z,0.00
2019-05-13T00:41:03.670Z,0.00
2019-05-13T00:42:03.958Z,0.00
2019-05-13T00:43:03.860Z,0.00
2019-05-13T00:44:03.842Z,0.00
2019-05-13T00:45:04.047Z,0.00
2019-05-13T00:46:03.934Z,0.00
2019-05-13T00:47:04.183Z,0.00
2019-05-13T00:48:04.203Z,0.00
2019-05-13T00:49:04.557Z,0.00
2019-05-13T00:50:03.673Z,0.00
2019-05-13T00:51:03.734Z,0.00
2019-05-13T00:52:03.881Z,0.00
2019-05-13T00:53:04.059Z,0.00
2019-05-13T00:54:04.146Z,0.00
2019-05-13T00:55:04.078Z,0.00
2019-05-13T00:56:03.977Z,0.00
2019-05-13T00:57:04.037Z,0.00
2019-05-13T00:58:04.093Z,0.00
2019-05-13T00:59:03.743Z,0.00
2019-05-13T01:00:03.484Z,0.00
2019-05-13T01:01:03.601Z,0.00
2019-05-13T01:02:03.610Z,0.00
2019-05-13T01:03:03.995Z,0.00
2019-05-13T01:04:03.967Z,0.00
2019-05-13T01:05:04.127Z,0.00
2019-05-13T01:06:04.049Z,0.00
2019-05-13T01:07:04.110Z,0.00
2019-05-13T01:08:04.105Z,0.00
2019-05-13T01:09:04.031Z,0.00
2019-05-13T01:10:04.058Z,0.00
2019-05-13T01:11:04.068Z,0.00
2019-05-13T01:12:04.108Z,0.00
2019-05-13T01:13:04.281Z,0.00
2019-05-13T01:14:04.109Z,0.00
2019-05-13T01:15:03.912Z,0.00
2019-05-13T01:16:03.750Z,0.00
2019-05-13T01:17:03.873Z,0.00
2019-05-13T01:18:04.068Z,0.00
2019-05-13T01:19:04.033Z,0.00
2019-05-13T01:20:03.971Z,0.00
2019-05-13T01:21:04.196Z,0.00
2019-05-13T01:22:03.408Z,0.00
2019-05-13T01:23:03.654Z,0.00
2019-05-13T01:24:03.794Z,0.00
2019-05-13T01:25:03.954Z,0.00
2019-05-13T01:26:03.929Z,0.00
2019-05-13T01:27:03.967Z,0.00
2019-05-13T01:28:04.225Z,0.00
2019-05-13T01:29:03.982Z,0.00
2019-05-13T01:30:03.961Z,0.00
2019-05-13T01:31:03.971Z,0.00
2019-05-13T01:32:01.607Z,0.00
2019-05-13T01:33:04.060Z,0.00
2019-05-13T01:34:03.886Z,0.00
2019-05-13T01:35:04.153Z,0.00
2019-05-13T01:36:05.000Z,0.00
2019-05-13T01:37:03.987Z,0.00
2019-05-13T01:38:01.566Z,0.00
2019-05-13T01:39:01.523Z,0.00
2019-05-13T01:40:01.530Z,0.00
2019-05-13T01:41:01.511Z,0.00
2019-05-13T01:42:03.492Z,0.00
2019-05-13T01:43:03.614Z,0.00
2019-05-13T01:44:03.858Z,0.00
2019-05-13T01:45:01.475Z,0.00
2019-05-13T01:46:01.451Z,0.00
2019-05-13T01:47:01.451Z,0.00
2019-05-13T01:48:01.474Z,0.00
2019-05-13T01:49:01.425Z,0.00
2019-05-13T01:50:03.802Z,0.00
2019-05-13T01:51:03.469Z,0.00
2019-05-13T01:52:03.821Z,0.00
2019-05-13T01:53:03.836Z,0.00
2019-05-13T01:54:03.954Z,0.00
2019-05-13T01:55:03.837Z,0.00
2019-05-13T01:56:03.637Z,0.00
2019-05-13T01:57:04.112Z,0.00
2019-05-13T01:58:03.837Z,0.00
2019-05-13T01:59:03.400Z,0.00
2019-05-13T02:00:01.302Z,0.00
2019-05-13T02:01:01.304Z,0.00
2019-05-13T02:02:03.265Z,0.00
2019-05-13T02:03:03.645Z,0.00
2019-05-13T02:04:03.651Z,0.00
2019-05-13T02:05:03.750Z,0.00
2019-05-13T02:06:03.557Z,0.00
2019-05-13T02:07:03.800Z,0.00
2019-05-13T02:08:04.008Z,0.00
2019-05-13T02:09:03.808Z,0.00
2019-05-13T02:10:01.214Z,0.00
2019-05-13T02:11:01.181Z,0.00
2019-05-13T02:12:01.174Z,0.00
2019-05-13T02:13:01.191Z,0.00
2019-05-13T02:14:01.171Z,0.00
2019-05-13T02:15:01.142Z,0.00
2019-05-13T02:16:01.120Z,0.00
2019-05-13T02:17:01.109Z,0.00
2019-05-13T02:18:01.111Z,0.00
2019-05-13T02:19:03.665Z,0.00
2019-05-13T02:20:03.676Z,0.00
2019-05-13T02:21:04.871Z,0.00
2019-05-13T02:22:03.692Z,0.00
2019-05-13T02:23:01.045Z,0.00
2019-05-13T02:24:01.064Z,0.00
2019-05-13T02:25:01.021Z,0.00
2019-05-13T02:26:01.009Z,0.00
2019-05-13T02:27:03.453Z,0.00
2019-05-13T02:28:07.770Z,0.00
2019-05-13T02:29:03.650Z,0.00
2019-05-13T02:30:05.159Z,0.00
2019-05-13T02:31:01.047Z,0.00
2019-05-13T02:32:02.693Z,0.00
2019-05-13T02:33:02.837Z,0.00
2019-05-13T02:34:02.515Z,0.00
2019-05-13T02:35:02.721Z,0.00
2019-05-13T02:36:02.930Z,0.00
2019-05-13T02:37:03.271Z,0.00
2019-05-13T02:38:18.330Z,0.00
2019-05-13T02:39:02.613Z,0.00
2019-05-13T02:40:03.606Z,0.00
2019-05-13T02:41:02.812Z,0.00
2019-05-13T02:42:03.458Z,0.00
2019-05-13T02:43:02.953Z,0.00
2019-05-13T02:44:03.460Z,4.00
2019-05-13T02:45:03.752Z,4.00
2019-05-13T02:46:04.210Z,4.00
2019-05-13T02:47:03.370Z,0.00
2019-05-13T02:48:03.429Z,4.00
2019-05-13T02:49:03.151Z,4.00
2019-05-13T02:50:04.640Z,4.00
2019-05-13T02:51:03.738Z,4.00
2019-05-13T02:52:02.815Z,8.00
2019-05-13T02:53:02.433Z,8.00
2019-05-13T02:54:03.595Z,8.00
2019-05-13T02:55:03.978Z,12.00
2019-05-13T02:56:02.970Z,8.00
2019-05-13T02:57:03.664Z,8.00
2019-05-13T02:58:03.191Z,12.00
2019-05-13T02:59:03.936Z,12.00
2019-05-13T03:00:03.967Z,12.00
2019-05-13T03:01:03.139Z,16.00
2019-05-13T03:02:03.462Z,20.00
2019-05-13T03:03:03.244Z,20.00
2019-05-13T03:04:03.136Z,24.00
2019-05-13T03:05:03.263Z,24.00
2019-05-13T03:06:02.943Z,24.00
2019-05-13T03:07:03.085Z,28.00
2019-05-13T03:08:03.412Z,32.00
2019-05-13T03:09:03.154Z,36.00
2019-05-13T03:10:04.180Z,40.00
2019-05-13T03:11:02.948Z,40.00
2019-05-13T03:12:03.922Z,44.00
2019-05-13T03:13:03.575Z,48.00
2019-05-13T03:14:03.370Z,56.00
2019-05-13T03:15:02.710Z,60.00
2019-05-13T03:16:02.981Z,60.00
2019-05-13T03:17:03.209Z,68.00
2019-05-13T03:18:03.256Z,72.00
2019-05-13T03:19:02.848Z,76.00
2019-05-13T03:20:03.801Z,84.00
2019-05-13T03:21:03.349Z,88.00
2019-05-13T03:22:03.042Z,96.00
2019-05-13T03:23:03.054Z,104.00
2019-05-13T03:24:03.393Z,112.00
2019-05-13T03:25:03.138Z,116.00
2019-05-13T03:26:02.792Z,124.00
2019-05-13T03:27:02.479Z,132.00
2019-05-13T03:28:03.298Z,136.00
2019-05-13T03:29:02.784Z,144.00
2019-05-13T03:30:04.282Z,152.00
2019-05-13T03:31:05.507Z,164.00
2019-05-13T03:32:06.703Z,168.00
2019-05-13T03:33:09.637Z,176.00
2019-05-13T03:34:06.895Z,184.00
2019-05-13T03:35:07.542Z,192.00
2019-05-13T03:36:06.344Z,200.00
2019-05-13T03:37:06.515Z,208.00
2019-05-13T03:38:03.375Z,216.00
2019-05-13T03:39:07.036Z,220.00
2019-05-13T03:40:03.321Z,232.00
2019-05-13T03:41:03.074Z,236.00
2019-05-13T03:42:02.791Z,248.00
2019-05-13T03:43:02.728Z,252.00
2019-05-13T03:44:02.601Z,264.00
2019-05-13T03:45:03.002Z,268.00
2019-05-13T03:46:03.220Z,276.00
2019-05-13T03:47:03.188Z,284.00
2019-05-13T03:48:03.731Z,292.00
2019-05-13T03:49:02.373Z,300.00
2019-05-13T03:50:03.562Z,304.00
2019-05-13T03:51:02.655Z,316.00
2019-05-13T03:52:02.921Z,324.00
2019-05-13T03:53:02.993Z,332.00
2019-05-13T03:54:03.098Z,336.00
2019-05-13T03:55:03.239Z,344.00
2019-05-13T03:56:02.407Z,352.00
2019-05-13T03:57:03.148Z,360.00
2019-05-13T03:58:03.086Z,368.00
2019-05-13T03:59:02.701Z,372.00
2019-05-13T04:00:03.373Z,376.00
2019-05-13T04:01:02.728Z,384.00
2019-05-13T04:02:02.532Z,392.00
2019-05-13T04:03:02.965Z,396.00
2019-05-13T04:04:03.062Z,400.00
2019-05-13T04:05:03.766Z,408.00
2019-05-13T04:06:03.284Z,412.00
2019-05-13T04:07:02.639Z,416.00
2019-05-13T04:08:02.832Z,428.00
2019-05-13T04:09:17.357Z,432.00
2019-05-13T04:10:03.307Z,436.00
2019-05-13T04:11:02.664Z,444.00
2019-05-13T04:12:02.708Z,448.00
2019-05-13T04:13:03.442Z,452.00
2019-05-13T04:14:02.887Z,456.00
2019-05-13T04:15:03.253Z,464.00
2019-05-13T04:16:02.935Z,468.00
2019-05-13T04:17:02.790Z,472.00
2019-05-13T04:18:02.775Z,480.00
2019-05-13T04:19:02.564Z,480.00
2019-05-13T04:20:02.778Z,488.00
2019-05-13T04:21:02.835Z,488.00
2019-05-13T04:22:02.369Z,496.00
2019-05-13T04:23:02.671Z,500.00
2019-05-13T04:24:03.705Z,504.00
2019-05-13T04:25:02.511Z,512.00
2019-05-13T04:26:02.642Z,516.00
2019-05-13T04:27:02.643Z,516.00
2019-05-13T04:28:03.035Z,520.00
2019-05-13T04:29:03.019Z,528.00
2019-05-13T04:30:03.101Z,532.00
2019-05-13T04:31:03.024Z,536.00
2019-05-13T04:32:02.245Z,536.00
2019-05-13T04:33:02.397Z,540.00
2019-05-13T04:34:02.273Z,548.00
2019-05-13T04:34:59.560Z,552.00
2019-05-13T04:36:02.349Z,552.00
2019-05-13T04:37:02.157Z,556.00
2019-05-13T04:38:02.454Z,560.00
2019-05-13T04:39:03.008Z,560.00
2019-05-13T04:39:59.514Z,564.00
2019-05-13T04:41:02.960Z,568.00
2019-05-13T04:42:02.116Z,572.00
2019-05-13T04:43:02.643Z,576.00
2019-05-13T04:44:02.289Z,580.00
2019-05-13T04:45:02.671Z,584.00
2019-05-13T04:46:02.345Z,588.00
2019-05-13T04:47:03.201Z,588.00
2019-05-13T04:47:59.416Z,596.00
2019-05-13T04:49:02.228Z,592.00
2019-05-13T04:50:02.588Z,600.00
2019-05-13T04:51:02.699Z,600.00
2019-05-13T04:52:02.901Z,604.00
2019-05-13T04:53:03.009Z,608.00
2019-05-13T04:54:02.561Z,608.00
2019-05-13T04:55:03.000Z,612.00
2019-05-13T04:56:02.785Z,616.00
2019-05-13T04:56:59.355Z,620.00
2019-05-13T04:57:59.309Z,620.00
2019-05-13T04:58:59.301Z,624.00
2019-05-13T04:59:59.296Z,624.00
2019-05-13T05:01:04.745Z,628.00
2019-05-13T05:02:04.779Z,628.00
2019-05-13T05:03:03.538Z,632.00
2019-05-13T05:03:59.234Z,632.00
2019-05-13T05:04:59.230Z,636.00
2019-05-13T05:05:59.220Z,640.00
2019-05-13T05:06:59.240Z,640.00
2019-05-13T05:07:59.196Z,644.00
2019-05-13T05:08:59.182Z,648.00
2019-05-13T05:10:26.240Z,648.00
2019-05-13T05:11:02.457Z,656.00
2019-05-13T05:12:01.904Z,656.00
2019-05-13T05:12:59.143Z,656.00
2019-05-13T05:13:59.126Z,656.00
2019-05-13T05:14:59.108Z,664.00
2019-05-13T05:15:59.098Z,664.00
2019-05-13T05:16:59.125Z,668.00
2019-05-13T05:17:59.090Z,668.00
2019-05-13T05:19:01.806Z,668.00
2019-05-13T05:19:59.068Z,668.00
2019-05-13T05:21:01.300Z,672.00
2019-05-13T05:22:02.198Z,672.00
2019-05-13T05:22:59.053Z,676.00
2019-05-13T05:23:59.013Z,680.00
2019-05-13T05:25:01.368Z,680.00
2019-05-13T05:26:01.162Z,680.00
2019-05-13T05:27:01.359Z,684.00
2019-05-13T05:27:58.970Z,684.00
2019-05-13T05:28:58.985Z,688.00
2019-05-13T05:29:58.961Z,688.00
2019-05-13T05:30:58.932Z,688.00
2019-05-13T05:31:58.954Z,692.00
2019-05-13T05:32:58.933Z,692.00
2019-05-13T05:33:58.901Z,696.00
2019-05-13T05:35:01.090Z,696.00
2019-05-13T05:36:01.688Z,696.00
2019-05-13T05:37:01.229Z,700.00
2019-05-13T05:37:58.875Z,700.00
2019-05-13T05:38:58.850Z,700.00
2019-05-13T05:39:58.839Z,704.00
2019-05-13T05:40:58.822Z,704.00
2019-05-13T05:41:58.817Z,704.00
2019-05-13T05:42:58.821Z,708.00
2019-05-13T05:43:58.819Z,708.00
2019-05-13T05:44:58.779Z,712.00
2019-05-13T05:45:58.774Z,712.00
2019-05-13T05:46:58.778Z,712.00
2019-05-13T05:47:58.787Z,712.00
2019-05-13T05:48:58.737Z,716.00
2019-05-13T05:49:58.753Z,716.00
2019-05-13T05:50:58.845Z,720.00
2019-05-13T05:51:58.709Z,720.00
2019-05-13T05:52:58.722Z,720.00
2019-05-13T05:53:58.679Z,720.00
2019-05-13T05:54:58.668Z,724.00
2019-05-13T05:55:59.480Z,724.00
2019-05-13T05:56:58.652Z,728.00
2019-05-13T05:57:58.657Z,728.00
2019-05-13T05:58:58.678Z,732.00
2019-05-13T05:59:58.617Z,732.00
2019-05-13T06:00:58.611Z,736.00
2019-05-13T06:02:01.674Z,736.00
2019-05-13T06:02:58.601Z,740.00
2019-05-13T06:03:58.576Z,740.00
2019-05-13T06:04:58.575Z,740.00
2019-05-13T06:05:58.549Z,740.00
2019-05-13T06:06:58.548Z,744.00
2019-05-13T06:07:58.538Z,744.00
2019-05-13T06:08:58.512Z,744.00
2019-05-13T06:09:58.527Z,744.00
2019-05-13T06:10:58.477Z,748.00
2019-05-13T06:11:58.484Z,748.00
2019-05-13T06:12:58.496Z,748.00
2019-05-13T06:13:58.459Z,748.00
2019-05-13T06:14:58.469Z,748.00
2019-05-13T06:15:58.439Z,752.00
2019-05-13T06:16:58.432Z,752.00
2019-05-13T06:17:58.438Z,752.00
2019-05-13T06:18:58.407Z,752.00
2019-05-13T06:19:58.391Z,752.00
2019-05-13T06:20:58.388Z,756.00
2019-05-13T06:21:58.367Z,760.00
2019-05-13T06:22:58.398Z,756.00
2019-05-13T06:23:58.347Z,760.00
2019-05-13T06:24:58.338Z,760.00
2019-05-13T06:25:58.337Z,760.00
2019-05-13T06:26:58.304Z,760.00
2019-05-13T06:27:58.300Z,760.00
2019-05-13T06:28:58.306Z,756.00
2019-05-13T06:29:58.294Z,760.00
2019-05-13T06:30:58.292Z,764.00
2019-05-13T06:32:13.942Z,764.00
2019-05-13T06:33:01.466Z,764.00
2019-05-13T06:33:58.266Z,764.00
2019-05-13T06:34:58.237Z,764.00
2019-05-13T06:35:58.238Z,768.00
2019-05-13T06:36:58.254Z,768.00
2019-05-13T06:37:58.204Z,768.00
2019-05-13T06:38:58.206Z,768.00
2019-05-13T06:39:58.171Z,764.00
2019-05-13T06:41:03.517Z,772.00
2019-05-13T06:41:59.145Z,764.00
2019-05-13T06:42:58.128Z,768.00
2019-05-13T06:43:58.151Z,768.00
2019-05-13T06:44:58.108Z,768.00
2019-05-13T06:45:58.092Z,768.00
2019-05-13T06:46:58.098Z,768.00
2019-05-13T06:47:58.084Z,768.00
2019-05-13T06:48:58.098Z,764.00
2019-05-13T06:49:58.054Z,764.00
2019-05-13T06:50:58.048Z,764.00
2019-05-13T06:51:58.034Z,764.00
2019-05-13T06:52:58.028Z,764.00
2019-05-13T06:53:58.035Z,764.00
2019-05-13T06:54:58.006Z,764.00
2019-05-13T06:55:57.990Z,764.00
2019-05-13T06:56:57.987Z,764.00
2019-05-13T06:57:58.014Z,764.00
2019-05-13T06:58:57.975Z,760.00
2019-05-13T06:59:57.977Z,764.00
2019-05-13T07:00:58.737Z,760.00
2019-05-13T07:01:57.937Z,760.00
2019-05-13T07:02:57.906Z,760.00
2019-05-13T07:03:57.919Z,764.00
2019-05-13T07:04:57.913Z,764.00
2019-05-13T07:05:57.887Z,764.00
2019-05-13T07:07:09.803Z,764.00
2019-05-13T07:07:58.859Z,764.00
2019-05-13T07:08:57.863Z,760.00
2019-05-13T07:09:57.847Z,760.00
2019-05-13T07:10:57.829Z,764.00
2019-05-13T07:11:57.841Z,764.00
2019-05-13T07:12:57.812Z,764.00
2019-05-13T07:13:57.819Z,760.00
2019-05-13T07:14:57.799Z,760.00
2019-05-13T07:15:57.792Z,760.00
2019-05-13T07:16:57.756Z,764.00
2019-05-13T07:17:57.750Z,760.00
2019-05-13T07:18:57.794Z,760.00
2019-05-13T07:19:57.716Z,760.00
2019-05-13T07:20:57.723Z,764.00
2019-05-13T07:21:57.706Z,764.00
2019-05-13T07:22:57.693Z,764.00
2019-05-13T07:23:57.690Z,768.00
2019-05-13T07:24:57.742Z,768.00
2019-05-13T07:25:57.671Z,764.00
2019-05-13T07:26:57.656Z,768.00
2019-05-13T07:27:57.647Z,768.00
2019-05-13T07:28:58.188Z,768.00
2019-05-13T07:29:57.639Z,772.00
2019-05-13T07:30:57.605Z,772.00
2019-05-13T07:31:57.591Z,780.00
2019-05-13T07:32:57.582Z,780.00
2019-05-13T07:33:57.579Z,788.00
2019-05-13T07:34:57.595Z,788.00
2019-05-13T07:35:58.578Z,788.00
2019-05-13T07:36:57.537Z,784.00
2019-05-13T07:37:57.528Z,788.00
2019-05-13T07:38:57.526Z,784.00
2019-05-13T07:39:57.529Z,784.00
2019-05-13T07:40:57.506Z,788.00
2019-05-13T07:41:57.542Z,792.00
2019-05-13T07:42:57.474Z,788.00
2019-05-13T07:43:57.467Z,792.00
2019-05-13T07:44:57.477Z,792.00
2019-05-13T07:45:57.445Z,792.00
2019-05-13T07:46:57.419Z,792.00
2019-05-13T07:47:57.410Z,792.00
2019-05-13T07:48:57.457Z,796.00
2019-05-13T07:49:57.424Z,792.00
2019-05-13T07:51:00.558Z,796.00
2019-05-13T07:51:58.369Z,800.00
2019-05-13T07:52:57.359Z,800.00
2019-05-13T07:53:57.355Z,800.00
2019-05-13T07:54:57.352Z,804.00
2019-05-13T07:55:57.312Z,816.00
2019-05-13T07:56:57.310Z,836.00
2019-05-13T07:57:57.307Z,824.00
2019-05-13T07:58:57.292Z,836.00
2019-05-13T07:59:57.331Z,836.00
2019-05-13T08:00:57.278Z,832.00
2019-05-13T08:01:57.310Z,864.00
2019-05-13T08:02:57.256Z,884.00
2019-05-13T08:03:57.228Z,940.00
2019-05-13T08:04:57.232Z,1028.00
2019-05-13T08:05:57.238Z,1104.00
2019-05-13T08:06:57.237Z,1208.00
2019-05-13T08:07:57.194Z,1336.00
2019-05-13T08:08:57.188Z,1488.00
2019-05-13T08:10:00.191Z,1700.00
2019-05-13T08:10:58.189Z,1776.00
2019-05-13T08:12:06.457Z,2072.00
2019-05-13T08:12:58.137Z,2460.00
2019-05-13T08:13:57.123Z,2176.00
2019-05-13T08:14:57.124Z,1808.00
2019-05-13T08:15:57.121Z,1520.00
2019-05-13T08:16:57.092Z,1624.00
2019-05-13T08:17:57.085Z,1884.00
2019-05-13T08:18:57.077Z,2264.00
2019-05-13T08:19:57.060Z,2672.00
2019-05-13T08:20:57.071Z,2968.00
2019-05-13T08:21:57.036Z,2668.00
2019-05-13T08:22:57.025Z,2684.00
2019-05-13T08:23:57.023Z,3248.00
2019-05-13T08:24:57.080Z,3072.00
2019-05-13T08:25:57.010Z,2096.00
2019-05-13T08:26:56.990Z,1924.00
2019-05-13T08:27:56.985Z,1972.00
2019-05-13T08:29:02.146Z,1896.00
2019-05-13T08:29:57.947Z,1944.00
2019-05-13T08:30:56.967Z,2276.00
2019-05-13T08:31:56.929Z,2704.00
2019-05-13T08:32:56.971Z,2904.00
2019-05-13T08:33:56.910Z,3148.00
2019-05-13T08:35:01.285Z,2984.00
2019-05-13T08:35:58.906Z,2420.00
2019-05-13T08:36:56.932Z,2104.00
2019-05-13T08:37:56.865Z,2016.00
2019-05-13T08:38:56.856Z,2076.00
2019-05-13T08:39:56.831Z,2024.00
2019-05-13T08:40:56.845Z,2140.00
2019-05-13T08:42:11.749Z,2452.00
2019-05-13T08:42:57.821Z,2680.00
2019-05-13T08:43:56.803Z,2956.00
2019-05-13T08:44:56.778Z,3184.00
2019-05-13T08:45:56.765Z,3280.00
2019-05-13T08:46:56.789Z,3036.00
2019-05-13T08:47:56.751Z,2632.00
2019-05-13T08:48:56.752Z,2184.00
2019-05-13T08:49:56.727Z,2236.00
2019-05-13T08:50:56.733Z,2096.00
2019-05-13T08:51:56.786Z,2000.00
2019-05-13T08:52:56.689Z,1868.00
2019-05-13T08:53:56.682Z,1676.00
2019-05-13T08:54:56.684Z,1620.00
2019-05-13T08:55:56.663Z,1800.00
2019-05-13T08:56:56.720Z,2048.00
2019-05-13T08:57:56.635Z,2252.00
2019-05-13T08:58:56.625Z,2336.00
2019-05-13T08:59:56.616Z,2552.00
2019-05-13T09:00:59.023Z,2864.00
2019-05-13T09:01:56.791Z,2972.00
2019-05-13T09:02:56.612Z,2868.00
2019-05-13T09:03:56.586Z,2872.00
2019-05-13T09:04:56.569Z,2680.00
2019-05-13T09:05:56.552Z,2444.00
2019-05-13T09:06:56.554Z,2380.00
2019-05-13T09:07:56.524Z,2364.00
2019-05-13T09:08:56.527Z,2440.00
2019-05-13T09:09:56.505Z,2608.00
2019-05-13T09:10:57.273Z,2616.00
2019-05-13T09:11:56.497Z,2348.00
2019-05-13T09:12:56.481Z,2092.00
2019-05-13T09:13:56.465Z,1836.00
2019-05-13T09:14:56.450Z,1992.00
2019-05-13T09:15:56.446Z,2152.00
2019-05-13T09:16:56.457Z,1856.00
2019-05-13T09:17:56.410Z,1748.00
2019-05-13T09:18:56.405Z,1960.00
2019-05-13T09:19:56.394Z,1924.00
2019-05-13T09:20:56.383Z,1924.00
2019-05-13T09:21:56.390Z,2096.00
2019-05-13T09:22:56.358Z,2148.00
2019-05-13T09:23:56.344Z,2364.00
2019-05-13T09:24:56.337Z,2860.00
2019-05-13T09:25:56.332Z,3200.00
2019-05-13T09:26:56.345Z,3328.00
2019-05-13T09:27:56.297Z,3312.00
2019-05-13T09:28:56.349Z,3160.00
2019-05-13T09:29:56.273Z,3040.00
2019-05-13T09:30:56.274Z,3000.00
2019-05-13T09:31:56.286Z,2592.00
2019-05-13T09:32:56.260Z,2220.00
2019-05-13T09:33:56.237Z,1984.00
2019-05-13T09:34:56.229Z,1784.00
2019-05-13T09:35:56.218Z,1704.00
2019-05-13T09:36:56.224Z,1688.00
2019-05-13T09:37:56.192Z,1776.00
2019-05-13T09:38:56.176Z,1920.00
2019-05-13T09:39:56.180Z,2116.00
2019-05-13T09:40:56.154Z,2124.00
2019-05-13T09:41:56.176Z,1960.00
2019-05-13T09:42:56.139Z,1912.00
2019-05-13T09:43:56.138Z,1880.00
2019-05-13T09:44:56.118Z,1812.00
2019-05-13T09:45:56.105Z,1728.00
2019-05-13T09:46:56.135Z,1504.00
2019-05-13T09:47:56.086Z,1348.00
2019-05-13T09:49:11.895Z,1356.00
2019-05-13T09:49:57.078Z,1384.00
2019-05-13T09:50:56.052Z,1480.00
2019-05-13T09:51:56.057Z,1636.00
2019-05-13T09:52:56.021Z,1852.00
2019-05-13T09:53:56.015Z,2104.00
2019-05-13T09:54:56.005Z,2388.00
2019-05-13T09:55:56.009Z,2680.00
2019-05-13T09:56:55.998Z,2972.00
2019-05-13T09:57:55.966Z,3260.00
2019-05-13T09:58:55.971Z,3476.00
2019-05-13T09:59:55.958Z,3180.00
2019-05-13T10:00:55.946Z,2512.00
2019-05-13T10:01:55.944Z,2080.00
2019-05-13T10:02:55.908Z,1724.00
2019-05-13T10:03:58.126Z,1524.00
2019-05-13T10:04:55.899Z,1424.00
2019-05-13T10:05:55.882Z,1548.00
2019-05-13T10:06:55.890Z,1776.00
2019-05-13T10:07:55.861Z,1928.00
2019-05-13T10:08:55.843Z,2036.00
2019-05-13T10:09:55.835Z,2116.00
2019-05-13T10:10:55.836Z,2088.00
2019-05-13T10:11:55.840Z,1924.00
2019-05-13T10:13:07.803Z,1616.00
2019-05-13T10:13:56.790Z,1440.00
2019-05-13T10:14:55.785Z,1368.00
2019-05-13T10:15:55.776Z,1240.00
2019-05-13T10:16:55.774Z,1176.00
2019-05-13T10:17:55.761Z,1228.00
2019-05-13T10:18:55.742Z,1296.00
2019-05-13T10:19:55.727Z,1380.00
2019-05-13T10:20:58.783Z,1476.00
2019-05-13T10:21:55.702Z,1652.00
2019-05-13T10:22:55.721Z,1976.00
2019-05-13T10:23:58.676Z,2520.00
2019-05-13T10:24:55.671Z,2788.00
2019-05-13T10:25:55.663Z,2900.00
2019-05-13T10:26:55.654Z,2964.00
2019-05-13T10:27:55.652Z,3176.00
2019-05-13T10:28:55.619Z,2716.00
2019-05-13T10:29:55.659Z,2336.00
2019-05-13T10:30:55.597Z,2112.00
2019-05-13T10:31:55.608Z,2088.00
2019-05-13T10:32:59.334Z,1964.00
2019-05-13T10:33:55.583Z,1832.00
2019-05-13T10:34:55.561Z,1824.00
2019-05-13T10:35:55.554Z,1740.00
2019-05-13T10:36:55.533Z,1604.00
2019-05-13T10:37:55.663Z,1544.00
2019-05-13T10:38:55.507Z,1544.00
2019-05-13T10:39:55.494Z,1572.00
2019-05-13T10:40:55.526Z,1628.00
2019-05-13T10:41:55.503Z,1708.00
2019-05-13T10:42:55.470Z,1780.00
2019-05-13T10:43:55.492Z,1800.00
2019-05-13T10:44:55.440Z,2000.00
2019-05-13T10:45:55.440Z,2192.00
2019-05-13T10:46:55.449Z,2436.00
2019-05-13T10:47:55.457Z,2636.00
2019-05-13T10:48:55.418Z,2868.00
2019-05-13T10:49:55.439Z,3084.00
2019-05-13T10:50:55.395Z,3308.00
2019-05-13T10:51:55.368Z,3540.00
2019-05-13T10:52:55.387Z,3816.00
2019-05-13T10:53:59.456Z,3904.00
2019-05-13T10:54:55.334Z,3816.00
2019-05-13T10:55:55.335Z,3724.00
2019-05-13T10:56:59.394Z,3680.00
2019-05-13T10:57:55.331Z,3480.00
2019-05-13T10:58:55.339Z,3204.00
2019-05-13T10:59:59.556Z,2944.00
2019-05-13T11:00:56.270Z,2328.00
2019-05-13T11:01:55.269Z,2032.00
2019-05-13T11:02:55.291Z,1864.00
2019-05-13T11:03:55.272Z,1848.00
2019-05-13T11:04:55.231Z,1844.00
2019-05-13T11:05:55.211Z,1836.00
2019-05-13T11:06:55.208Z,1976.00
2019-05-13T11:07:55.257Z,2292.00
2019-05-13T11:08:55.181Z,2656.00
2019-05-13T11:09:55.200Z,3020.00
2019-05-13T11:10:55.148Z,3404.00
2019-05-13T11:11:55.149Z,3852.00
2019-05-13T11:12:55.151Z,4220.00
2019-05-13T11:13:59.348Z,4324.00
2019-05-13T11:14:56.109Z,4120.00
2019-05-13T11:15:58.288Z,4092.00
2019-05-13T11:16:55.084Z,4076.00
2019-05-13T11:17:55.101Z,4068.00
2019-05-13T11:18:55.103Z,4004.00
2019-05-13T11:19:55.061Z,3880.00
2019-05-13T11:20:55.044Z,3900.00
2019-05-13T11:21:55.031Z,3788.00
2019-05-13T11:22:55.054Z,3740.00
2019-05-13T11:23:55.001Z,3616.00
2019-05-13T11:24:55.004Z,3496.00
2019-05-13T11:25:55.031Z,3336.00
2019-05-13T11:26:54.984Z,3220.00
2019-05-13T11:27:58.355Z,2788.00
2019-05-13T11:28:54.954Z,2472.00
2019-05-13T11:29:54.938Z,2260.00
2019-05-13T11:30:59.587Z,2024.00
2019-05-13T11:31:54.919Z,1700.00
2019-05-13T11:32:54.942Z,1468.00
2019-05-13T11:33:54.903Z,1264.00
2019-05-13T11:34:54.895Z,1092.00
2019-05-13T11:35:54.962Z,1016.00
2019-05-13T11:36:54.883Z,1024.00
2019-05-13T11:37:54.884Z,1104.00
2019-05-13T11:38:54.847Z,1212.00
2019-05-13T11:39:54.842Z,1164.00
2019-05-13T11:40:54.847Z,1212.00
2019-05-13T11:41:54.859Z,1208.00
2019-05-13T11:42:54.834Z,1212.00
2019-05-13T11:44:12.106Z,1236.00
2019-05-13T11:44:55.777Z,1260.00
2019-05-13T11:45:54.777Z,1296.00
2019-05-13T11:46:54.760Z,1332.00
2019-05-13T11:47:54.763Z,1384.00
2019-05-13T11:48:54.761Z,1436.00
2019-05-13T11:49:54.793Z,1500.00
2019-05-13T11:50:54.723Z,1600.00
2019-05-13T11:51:54.702Z,1744.00
2019-05-13T11:52:54.734Z,1924.00
2019-05-13T11:53:54.690Z,2176.00
2019-05-13T11:54:54.674Z,2452.00
2019-05-13T11:55:54.712Z,2736.00
2019-05-13T11:57:01.162Z,3008.00
2019-05-13T11:57:55.645Z,3304.00
2019-05-13T11:58:54.619Z,3368.00
2019-05-13T11:59:54.606Z,3372.00
2019-05-13T12:00:54.606Z,3588.00
2019-05-13T12:01:54.602Z,3584.00
2019-05-13T12:02:54.837Z,3332.00
2019-05-13T12:03:54.593Z,3092.00
2019-05-13T12:04:54.558Z,2592.00
2019-05-13T12:05:54.546Z,1852.00
2019-05-13T12:06:55.005Z,1496.00
2019-05-13T12:07:54.524Z,1464.00
2019-05-13T12:08:55.383Z,1516.00
2019-05-13T12:09:54.492Z,1556.00
2019-05-13T12:10:54.483Z,1592.00
2019-05-13T12:11:54.493Z,1672.00
2019-05-13T12:12:54.456Z,1728.00
2019-05-13T12:13:54.487Z,1820.00
2019-05-13T12:15:22.344Z,1960.00
2019-05-13T12:15:55.465Z,2148.00
2019-05-13T12:16:54.437Z,2436.00
2019-05-13T12:17:54.423Z,2496.00
2019-05-13T12:18:54.429Z,2684.00
2019-05-13T12:19:54.552Z,2936.00
2019-05-13T12:20:54.449Z,3180.00
2019-05-13T12:21:54.437Z,3476.00
2019-05-13T12:22:54.356Z,3652.00
2019-05-13T12:23:54.371Z,3820.00
2019-05-13T12:24:54.334Z,3680.00
2019-05-13T12:25:54.329Z,3440.00
2019-05-13T12:26:54.324Z,3268.00
2019-05-13T12:27:54.294Z,2808.00
2019-05-13T12:28:54.306Z,2292.00
2019-05-13T12:29:54.290Z,1940.00
2019-05-13T12:30:54.282Z,1788.00
2019-05-13T12:31:54.269Z,1624.00